sensor_id;sensor_type;location;lat;lon;timestamp;temperature;humidity
51559;DHT22;61650;48.882;2.092;2022-08-03T00:01:16;21.20;67.50
51559;DHT22;61650;48.882;2.092;2022-08-03T00:03:42;21.20;67.70
51559;DHT22;61650;48.882;2.092;2022-08-03T00:06:08;21.20;67.70
51559;DHT22;61650;48.882;2.092;2022-08-03T00:08:34;21.20;67.60
51559;DHT22;61650;48.882;2.092;2022-08-03T00:10:59;21.10;68.00
51559;DHT22;61650;48.882;2.092;2022-08-03T00:13:26;20.90;68.60
51559;DHT22;61650;48.882;2.092;2022-08-03T00:15:52;20.90;68.70
51559;DHT22;61650;48.882;2.092;2022-08-03T00:18:17;20.90;68.60
51559;DHT22;61650;48.882;2.092;2022-08-03T00:20:43;20.90;68.90
51559;DHT22;61650;48.882;2.092;2022-08-03T00:23:09;20.80;69.00
51559;DHT22;61650;48.882;2.092;2022-08-03T00:25:35;20.70;69.10
51559;DHT22;61650;48.882;2.092;2022-08-03T00:28:02;20.80;69.40
51559;DHT22;61650;48.882;2.092;2022-08-03T00:30:28;20.60;69.60
51559;DHT22;61650;48.882;2.092;2022-08-03T00:32:53;20.50;70.00
51559;DHT22;61650;48.882;2.092;2022-08-03T00:35:19;20.50;71.10
51559;DHT22;61650;48.882;2.092;2022-08-03T00:37:45;20.50;69.90
51559;DHT22;61650;48.882;2.092;2022-08-03T00:40:12;20.50;69.80
51559;DHT22;61650;48.882;2.092;2022-08-03T00:42:49;20.40;70.10
51559;DHT22;61650;48.882;2.092;2022-08-03T00:45:16;20.40;71.20
51559;DHT22;61650;48.882;2.092;2022-08-03T00:47:43;20.40;70.60
51559;DHT22;61650;48.882;2.092;2022-08-03T00:50:08;20.30;70.60
51559;DHT22;61650;48.882;2.092;2022-08-03T00:52:34;20.30;70.60
51559;DHT22;61650;48.882;2.092;2022-08-03T00:55:01;20.30;70.60
51559;DHT22;61650;48.882;2.092;2022-08-03T00:57:29;20.20;70.70
51559;DHT22;61650;48.882;2.092;2022-08-03T00:59:55;20.20;70.80
51559;DHT22;61650;48.882;2.092;2022-08-03T01:02:20;20.10;71.10
51559;DHT22;61650;48.882;2.092;2022-08-03T01:04:46;20.10;71.00
51559;DHT22;61650;48.882;2.092;2022-08-03T01:13:03;20.10;71.00
51559;DHT22;61650;48.882;2.092;2022-08-03T01:15:49;20.00;71.30
51559;DHT22;61650;48.882;2.092;2022-08-03T01:18:33;19.90;71.90
51559;DHT22;61650;48.882;2.092;2022-08-03T01:21:02;19.90;72.30
51559;DHT22;61650;48.882;2.092;2022-08-03T01:26:47;19.90;72.30
51559;DHT22;61650;48.882;2.092;2022-08-03T01:32:21;19.80;72.90
51559;DHT22;61650;48.882;2.092;2022-08-03T01:34:58;19.80;71.80
51559;DHT22;61650;48.882;2.092;2022-08-03T01:37:31;19.70;72.40
51559;DHT22;61650;48.882;2.092;2022-08-03T01:39:57;19.70;72.20
51559;DHT22;61650;48.882;2.092;2022-08-03T01:42:26;19.70;72.30
51559;DHT22;61650;48.882;2.092;2022-08-03T01:44:54;19.60;72.50
51559;DHT22;61650;48.882;2.092;2022-08-03T01:47:22;19.60;72.50
51559;DHT22;61650;48.882;2.092;2022-08-03T01:49:49;19.50;72.80
51559;DHT22;61650;48.882;2.092;2022-08-03T01:52:17;19.40;73.00
51559;DHT22;61650;48.882;2.092;2022-08-03T01:54:47;19.30;73.40
51559;DHT22;61650;48.882;2.092;2022-08-03T01:57:14;19.30;73.40
51559;DHT22;61650;48.882;2.092;2022-08-03T01:59:41;19.30;73.20
51559;DHT22;61650;48.882;2.092;2022-08-03T02:02:07;19.30;73.40
51559;DHT22;61650;48.882;2.092;2022-08-03T02:04:37;19.30;73.60
51559;DHT22;61650;48.882;2.092;2022-08-03T02:07:03;19.20;73.90
51559;DHT22;61650;48.882;2.092;2022-08-03T02:09:29;19.10;73.80
51559;DHT22;61650;48.882;2.092;2022-08-03T02:11:56;19.10;73.80
51559;DHT22;61650;48.882;2.092;2022-08-03T02:14:23;19.10;73.90
51559;DHT22;61650;48.882;2.092;2022-08-03T02:16:50;19.10;74.00
51559;DHT22;61650;48.882;2.092;2022-08-03T02:19:17;19.20;73.80
51559;DHT22;61650;48.882;2.092;2022-08-03T02:21:44;19.10;73.90
51559;DHT22;61650;48.882;2.092;2022-08-03T02:24:11;19.00;74.40
51559;DHT22;61650;48.882;2.092;2022-08-03T02:26:37;18.90;74.60
51559;DHT22;61650;48.882;2.092;2022-08-03T02:29:20;18.90;74.70
51559;DHT22;61650;48.882;2.092;2022-08-03T02:31:48;18.80;75.50
51559;DHT22;61650;48.882;2.092;2022-08-03T02:34:15;18.80;75.00
51559;DHT22;61650;48.882;2.092;2022-08-03T02:36:42;18.80;74.80
51559;DHT22;61650;48.882;2.092;2022-08-03T02:39:13;18.90;74.80
51559;DHT22;61650;48.882;2.092;2022-08-03T02:41:51;18.80;74.90
51559;DHT22;61650;48.882;2.092;2022-08-03T02:44:23;18.80;75.40
51559;DHT22;61650;48.882;2.092;2022-08-03T02:46:56;18.80;75.00
51559;DHT22;61650;48.882;2.092;2022-08-03T02:49:24;18.80;74.90
51559;DHT22;61650;48.882;2.092;2022-08-03T02:51:51;18.70;75.20
51559;DHT22;61650;48.882;2.092;2022-08-03T02:54:18;18.60;75.60
51559;DHT22;61650;48.882;2.092;2022-08-03T02:56:46;18.50;75.80
51559;DHT22;61650;48.882;2.092;2022-08-03T02:59:13;18.50;76.10
51559;DHT22;61650;48.882;2.092;2022-08-03T03:01:39;18.50;75.90
51559;DHT22;61650;48.882;2.092;2022-08-03T03:04:06;18.50;75.80
51559;DHT22;61650;48.882;2.092;2022-08-03T03:06:32;18.50;76.30
51559;DHT22;61650;48.882;2.092;2022-08-03T03:08:57;18.40;76.60
51559;DHT22;61650;48.882;2.092;2022-08-03T03:11:24;18.40;76.40
51559;DHT22;61650;48.882;2.092;2022-08-03T03:13:50;18.30;76.80
51559;DHT22;61650;48.882;2.092;2022-08-03T03:16:17;18.30;77.10
51559;DHT22;61650;48.882;2.092;2022-08-03T03:18:45;18.20;76.70
51559;DHT22;61650;48.882;2.092;2022-08-03T03:21:15;18.30;76.60
51559;DHT22;61650;48.882;2.092;2022-08-03T03:23:41;18.20;76.70
51559;DHT22;61650;48.882;2.092;2022-08-03T03:26:08;18.20;76.70
51559;DHT22;61650;48.882;2.092;2022-08-03T03:28:34;18.20;76.60
51559;DHT22;61650;48.882;2.092;2022-08-03T03:31:04;18.20;77.20
51559;DHT22;61650;48.882;2.092;2022-08-03T03:33:31;18.10;77.20
51559;DHT22;61650;48.882;2.092;2022-08-03T03:35:57;18.10;77.40
51559;DHT22;61650;48.882;2.092;2022-08-03T03:38:23;18.10;77.30
51559;DHT22;61650;48.882;2.092;2022-08-03T03:40:49;18.10;77.40
51559;DHT22;61650;48.882;2.092;2022-08-03T03:43:14;18.10;77.80
51559;DHT22;61650;48.882;2.092;2022-08-03T03:45:43;18.00;77.60
51559;DHT22;61650;48.882;2.092;2022-08-03T03:48:09;18.00;77.90
51559;DHT22;61650;48.882;2.092;2022-08-03T03:50:36;18.00;78.10
51559;DHT22;61650;48.882;2.092;2022-08-03T03:53:02;17.90;78.70
51559;DHT22;61650;48.882;2.092;2022-08-03T03:55:29;17.90;78.30
51559;DHT22;61650;48.882;2.092;2022-08-03T03:57:55;17.90;78.20
51559;DHT22;61650;48.882;2.092;2022-08-03T04:00:21;17.90;78.10
51559;DHT22;61650;48.882;2.092;2022-08-03T04:02:47;17.90;78.20
51559;DHT22;61650;48.882;2.092;2022-08-03T04:05:14;17.90;78.40
51559;DHT22;61650;48.882;2.092;2022-08-03T04:08:00;17.80;78.80
51559;DHT22;61650;48.882;2.092;2022-08-03T04:11:39;17.80;78.60
51559;DHT22;61650;48.882;2.092;2022-08-03T04:16:15;17.80;78.60
51559;DHT22;61650;48.882;2.092;2022-08-03T04:18:45;17.90;78.40
51559;DHT22;61650;48.882;2.092;2022-08-03T04:21:13;17.90;78.50
51559;DHT22;61650;48.882;2.092;2022-08-03T04:23:43;17.90;78.40
51559;DHT22;61650;48.882;2.092;2022-08-03T04:26:12;17.90;78.50
51559;DHT22;61650;48.882;2.092;2022-08-03T04:28:42;17.80;78.90
51559;DHT22;61650;48.882;2.092;2022-08-03T04:31:07;17.80;78.80
51559;DHT22;61650;48.882;2.092;2022-08-03T04:33:35;17.80;79.00
51559;DHT22;61650;48.882;2.092;2022-08-03T04:36:04;17.80;78.90
51559;DHT22;61650;48.882;2.092;2022-08-03T04:38:34;17.80;78.70
51559;DHT22;61650;48.882;2.092;2022-08-03T04:41:01;17.80;78.70
51559;DHT22;61650;48.882;2.092;2022-08-03T04:43:27;17.80;78.90
51559;DHT22;61650;48.882;2.092;2022-08-03T04:45:53;17.80;78.50
51559;DHT22;61650;48.882;2.092;2022-08-03T04:48:20;17.80;78.50
51559;DHT22;61650;48.882;2.092;2022-08-03T04:50:46;17.80;78.60
51559;DHT22;61650;48.882;2.092;2022-08-03T04:53:12;17.80;78.70
51559;DHT22;61650;48.882;2.092;2022-08-03T04:55:38;17.80;78.60
51559;DHT22;61650;48.882;2.092;2022-08-03T04:58:03;17.70;79.20
51559;DHT22;61650;48.882;2.092;2022-08-03T05:00:30;17.70;79.00
51559;DHT22;61650;48.882;2.092;2022-08-03T05:02:56;17.80;78.80
51559;DHT22;61650;48.882;2.092;2022-08-03T05:05:22;17.80;78.60
51559;DHT22;61650;48.882;2.092;2022-08-03T05:07:48;17.80;78.70
51559;DHT22;61650;48.882;2.092;2022-08-03T05:10:16;17.90;78.90
51559;DHT22;61650;48.882;2.092;2022-08-03T05:12:43;17.80;79.00
51559;DHT22;61650;48.882;2.092;2022-08-03T05:15:09;17.90;78.60
51559;DHT22;61650;48.882;2.092;2022-08-03T05:17:34;17.90;79.20
51559;DHT22;61650;48.882;2.092;2022-08-03T05:20:01;17.90;79.00
51559;DHT22;61650;48.882;2.092;2022-08-03T05:22:28;17.90;79.10
51559;DHT22;61650;48.882;2.092;2022-08-03T05:24:54;18.00;78.70
51559;DHT22;61650;48.882;2.092;2022-08-03T05:27:20;18.10;78.10
51559;DHT22;61650;48.882;2.092;2022-08-03T05:29:49;18.30;78.20
51559;DHT22;61650;48.882;2.092;2022-08-03T05:32:15;18.20;78.00
51559;DHT22;61650;48.882;2.092;2022-08-03T05:34:41;18.40;77.60
51559;DHT22;61650;48.882;2.092;2022-08-03T05:37:07;18.50;77.20
51559;DHT22;61650;48.882;2.092;2022-08-03T05:39:33;18.50;77.00
51559;DHT22;61650;48.882;2.092;2022-08-03T05:41:59;18.50;77.10
51559;DHT22;61650;48.882;2.092;2022-08-03T05:44:25;18.60;76.80
51559;DHT22;61650;48.882;2.092;2022-08-03T05:46:51;18.70;76.50
51559;DHT22;61650;48.882;2.092;2022-08-03T05:49:17;18.80;76.30
51559;DHT22;61650;48.882;2.092;2022-08-03T05:51:43;18.90;76.20
51559;DHT22;61650;48.882;2.092;2022-08-03T05:54:09;18.90;76.20
51559;DHT22;61650;48.882;2.092;2022-08-03T05:56:35;19.00;76.00
51559;DHT22;61650;48.882;2.092;2022-08-03T05:59:00;19.00;76.00
51559;DHT22;61650;48.882;2.092;2022-08-03T06:01:26;19.10;75.90
51559;DHT22;61650;48.882;2.092;2022-08-03T06:03:51;19.10;75.90
51559;DHT22;61650;48.882;2.092;2022-08-03T06:06:17;19.20;75.70
51559;DHT22;61650;48.882;2.092;2022-08-03T06:08:44;19.30;75.60
51559;DHT22;61650;48.882;2.092;2022-08-03T06:11:11;19.40;75.60
51559;DHT22;61650;48.882;2.092;2022-08-03T06:13:37;19.40;75.40
51559;DHT22;61650;48.882;2.092;2022-08-03T06:16:03;19.50;75.30
51559;DHT22;61650;48.882;2.092;2022-08-03T06:18:28;19.60;75.10
51559;DHT22;61650;48.882;2.092;2022-08-03T06:20:54;19.70;75.00
51559;DHT22;61650;48.882;2.092;2022-08-03T06:23:20;19.80;74.80
51559;DHT22;61650;48.882;2.092;2022-08-03T06:25:46;19.90;74.60
51559;DHT22;61650;48.882;2.092;2022-08-03T06:28:12;20.10;74.40
51559;DHT22;61650;48.882;2.092;2022-08-03T06:30:42;20.30;74.40
51559;DHT22;61650;48.882;2.092;2022-08-03T06:33:08;20.50;74.10
51559;DHT22;61650;48.882;2.092;2022-08-03T06:35:34;20.70;73.50
51559;DHT22;61650;48.882;2.092;2022-08-03T06:37:59;20.90;73.00
51559;DHT22;61650;48.882;2.092;2022-08-03T06:40:25;21.00;72.80
51559;DHT22;61650;48.882;2.092;2022-08-03T06:42:56;21.10;72.40
51559;DHT22;61650;48.882;2.092;2022-08-03T06:45:22;21.20;72.00
51559;DHT22;61650;48.882;2.092;2022-08-03T06:48:09;21.30;71.60
51559;DHT22;61650;48.882;2.092;2022-08-03T06:50:36;21.40;71.20
51559;DHT22;61650;48.882;2.092;2022-08-03T06:53:02;21.50;71.00
51559;DHT22;61650;48.882;2.092;2022-08-03T06:55:28;21.60;70.60
51559;DHT22;61650;48.882;2.092;2022-08-03T06:57:53;21.70;70.20
51559;DHT22;61650;48.882;2.092;2022-08-03T07:00:19;21.80;69.80
51559;DHT22;61650;48.882;2.092;2022-08-03T07:02:45;22.00;69.30
51559;DHT22;61650;48.882;2.092;2022-08-03T07:05:10;22.20;68.70
51559;DHT22;61650;48.882;2.092;2022-08-03T07:07:37;22.50;67.50
51559;DHT22;61650;48.882;2.092;2022-08-03T07:10:04;22.60;66.90
51559;DHT22;61650;48.882;2.092;2022-08-03T07:12:30;22.80;66.50
51559;DHT22;61650;48.882;2.092;2022-08-03T07:14:58;22.90;65.90
51559;DHT22;61650;48.882;2.092;2022-08-03T07:17:24;22.90;65.80
51559;DHT22;61650;48.882;2.092;2022-08-03T07:19:49;23.00;65.50
51559;DHT22;61650;48.882;2.092;2022-08-03T07:22:15;23.20;64.90
51559;DHT22;61650;48.882;2.092;2022-08-03T07:24:41;23.40;64.00
51559;DHT22;61650;48.882;2.092;2022-08-03T07:27:07;23.60;63.60
51559;DHT22;61650;48.882;2.092;2022-08-03T07:29:35;23.60;63.60
51559;DHT22;61650;48.882;2.092;2022-08-03T07:32:01;23.50;63.80
51559;DHT22;61650;48.882;2.092;2022-08-03T07:34:27;23.50;63.90
51559;DHT22;61650;48.882;2.092;2022-08-03T07:36:52;23.60;63.70
51559;DHT22;61650;48.882;2.092;2022-08-03T07:39:18;23.70;63.30
51559;DHT22;61650;48.882;2.092;2022-08-03T07:41:45;23.70;63.40
51559;DHT22;61650;48.882;2.092;2022-08-03T07:44:10;23.80;63.00
51559;DHT22;61650;48.882;2.092;2022-08-03T07:46:36;23.70;62.50
51559;DHT22;61650;48.882;2.092;2022-08-03T07:49:02;23.80;62.80
51559;DHT22;61650;48.882;2.092;2022-08-03T07:51:28;24.00;62.40
51559;DHT22;61650;48.882;2.092;2022-08-03T07:53:53;24.40;61.70
51559;DHT22;61650;48.882;2.092;2022-08-03T07:56:22;24.80;60.50
51559;DHT22;61650;48.882;2.092;2022-08-03T07:58:50;24.80;60.40
51559;DHT22;61650;48.882;2.092;2022-08-03T08:01:15;24.70;60.80
51559;DHT22;61650;48.882;2.092;2022-08-03T08:03:44;24.60;61.00
51559;DHT22;61650;48.882;2.092;2022-08-03T08:06:09;24.70;60.90
51559;DHT22;61650;48.882;2.092;2022-08-03T08:08:36;25.00;59.90
51559;DHT22;61650;48.882;2.092;2022-08-03T08:11:02;25.30;59.10
51559;DHT22;61650;48.882;2.092;2022-08-03T08:13:27;25.20;59.30
51559;DHT22;61650;48.882;2.092;2022-08-03T08:15:53;25.10;59.00
51559;DHT22;61650;48.882;2.092;2022-08-03T08:18:18;25.10;59.30
51559;DHT22;61650;48.882;2.092;2022-08-03T08:20:44;25.60;58.00
51559;DHT22;61650;48.882;2.092;2022-08-03T08:23:10;25.80;57.40
51559;DHT22;61650;48.882;2.092;2022-08-03T08:25:35;26.10;56.30
51559;DHT22;61650;48.882;2.092;2022-08-03T08:28:01;26.10;56.40
51559;DHT22;61650;48.882;2.092;2022-08-03T08:30:31;25.80;56.80
51559;DHT22;61650;48.882;2.092;2022-08-03T08:32:58;25.70;57.30
51559;DHT22;61650;48.882;2.092;2022-08-03T08:35:23;25.70;57.50
51559;DHT22;61650;48.882;2.092;2022-08-03T08:37:49;26.10;56.90
51559;DHT22;61650;48.882;2.092;2022-08-03T08:40:15;26.20;55.00
51559;DHT22;61650;48.882;2.092;2022-08-03T08:42:42;26.10;55.40
51559;DHT22;61650;48.882;2.092;2022-08-03T08:45:09;26.00;55.20
51559;DHT22;61650;48.882;2.092;2022-08-03T08:47:38;26.20;55.80
51559;DHT22;61650;48.882;2.092;2022-08-03T08:50:05;26.40;55.30
51559;DHT22;61650;48.882;2.092;2022-08-03T08:52:32;26.80;54.70
51559;DHT22;61650;48.882;2.092;2022-08-03T08:55:01;26.70;53.80
51559;DHT22;61650;48.882;2.092;2022-08-03T08:57:34;26.70;53.20
51559;DHT22;61650;48.882;2.092;2022-08-03T09:00:07;26.80;53.60
51559;DHT22;61650;48.882;2.092;2022-08-03T09:02:38;26.90;54.10
51559;DHT22;61650;48.882;2.092;2022-08-03T09:05:12;27.00;53.90
51559;DHT22;61650;48.882;2.092;2022-08-03T09:07:42;27.00;53.50
51559;DHT22;61650;48.882;2.092;2022-08-03T09:10:09;27.10;53.50
51559;DHT22;61650;48.882;2.092;2022-08-03T09:12:42;27.50;51.90
51559;DHT22;61650;48.882;2.092;2022-08-03T09:15:35;27.50;50.70
51559;DHT22;61650;48.882;2.092;2022-08-03T09:18:03;27.60;49.30
51559;DHT22;61650;48.882;2.092;2022-08-03T09:20:32;27.70;49.30
51559;DHT22;61650;48.882;2.092;2022-08-03T09:23:03;27.80;49.00
51559;DHT22;61650;48.882;2.092;2022-08-03T09:25:38;27.80;48.00
51559;DHT22;61650;48.882;2.092;2022-08-03T09:30:31;28.40;47.50
51559;DHT22;61650;48.882;2.092;2022-08-03T09:33:04;28.40;47.40
51559;DHT22;61650;48.882;2.092;2022-08-03T09:35:30;28.90;42.90
51559;DHT22;61650;48.882;2.092;2022-08-03T09:38:16;29.00;44.60
51559;DHT22;61650;48.882;2.092;2022-08-03T09:40:43;29.00;42.90
51559;DHT22;61650;48.882;2.092;2022-08-03T09:43:09;29.00;42.90
51559;DHT22;61650;48.882;2.092;2022-08-03T09:45:37;29.00;43.80
51559;DHT22;61650;48.882;2.092;2022-08-03T09:48:22;29.00;42.90
51559;DHT22;61650;48.882;2.092;2022-08-03T09:53:16;29.10;43.20
51559;DHT22;61650;48.882;2.092;2022-08-03T09:55:56;29.20;41.40
51559;DHT22;61650;48.882;2.092;2022-08-03T09:58:24;29.30;41.30
51559;DHT22;61650;48.882;2.092;2022-08-03T10:00:58;29.30;41.60
51559;DHT22;61650;48.882;2.092;2022-08-03T10:03:27;29.50;41.20
51559;DHT22;61650;48.882;2.092;2022-08-03T10:05:53;29.50;42.40
51559;DHT22;61650;48.882;2.092;2022-08-03T10:08:19;29.30;41.40
51559;DHT22;61650;48.882;2.092;2022-08-03T10:10:47;29.50;42.00
51559;DHT22;61650;48.882;2.092;2022-08-03T10:13:15;29.60;41.40
51559;DHT22;61650;48.882;2.092;2022-08-03T10:15:41;29.60;41.30
51559;DHT22;61650;48.882;2.092;2022-08-03T10:18:07;29.60;41.00
51559;DHT22;61650;48.882;2.092;2022-08-03T10:20:42;29.80;40.20
51559;DHT22;61650;48.882;2.092;2022-08-03T10:23:10;29.80;40.40
51559;DHT22;61650;48.882;2.092;2022-08-03T10:25:37;29.90;41.30
51559;DHT22;61650;48.882;2.092;2022-08-03T10:28:03;29.90;39.60
51559;DHT22;61650;48.882;2.092;2022-08-03T10:30:32;30.10;40.20
51559;DHT22;61650;48.882;2.092;2022-08-03T10:33:08;30.10;39.90
51559;DHT22;61650;48.882;2.092;2022-08-03T10:35:36;30.40;39.70
51559;DHT22;61650;48.882;2.092;2022-08-03T10:38:08;30.70;39.40
51559;DHT22;61650;48.882;2.092;2022-08-03T10:40:37;30.50;39.10
51559;DHT22;61650;48.882;2.092;2022-08-03T10:43:08;30.40;39.50
51559;DHT22;61650;48.882;2.092;2022-08-03T10:45:40;30.40;39.90
51559;DHT22;61650;48.882;2.092;2022-08-03T10:48:08;30.60;39.60
51559;DHT22;61650;48.882;2.092;2022-08-03T10:50:34;30.30;40.00
51559;DHT22;61650;48.882;2.092;2022-08-03T10:53:00;30.10;40.50
51559;DHT22;61650;48.882;2.092;2022-08-03T10:55:34;30.30;39.90
51559;DHT22;61650;48.882;2.092;2022-08-03T11:01:05;30.60;38.20
51559;DHT22;61650;48.882;2.092;2022-08-03T11:03:30;30.60;39.00
51559;DHT22;61650;48.882;2.092;2022-08-03T11:06:17;30.70;39.00
51559;DHT22;61650;48.882;2.092;2022-08-03T11:08:47;30.80;38.20
51559;DHT22;61650;48.882;2.092;2022-08-03T11:14:04;30.80;37.50
51559;DHT22;61650;48.882;2.092;2022-08-03T11:16:36;31.00;36.80
51559;DHT22;61650;48.882;2.092;2022-08-03T11:19:07;30.90;38.20
51559;DHT22;61650;48.882;2.092;2022-08-03T11:27:33;31.00;36.30
51559;DHT22;61650;48.882;2.092;2022-08-03T11:30:16;31.20;36.60
51559;DHT22;61650;48.882;2.092;2022-08-03T11:32:51;31.20;37.10
51559;DHT22;61650;48.882;2.092;2022-08-03T11:40:53;31.40;36.20
51559;DHT22;61650;48.882;2.092;2022-08-03T11:46:01;31.20;36.70
51559;DHT22;61650;48.882;2.092;2022-08-03T11:48:33;31.50;35.50
51559;DHT22;61650;48.882;2.092;2022-08-03T11:51:07;31.70;35.90
51559;DHT22;61650;48.882;2.092;2022-08-03T11:53:43;31.80;35.70
51559;DHT22;61650;48.882;2.092;2022-08-03T11:56:08;32.00;35.40
51559;DHT22;61650;48.882;2.092;2022-08-03T11:58:34;32.20;35.50
51559;DHT22;61650;48.882;2.092;2022-08-03T12:01:07;32.40;35.40
51559;DHT22;61650;48.882;2.092;2022-08-03T12:03:34;32.40;34.60
51559;DHT22;61650;48.882;2.092;2022-08-03T12:05:59;32.60;34.70
51559;DHT22;61650;48.882;2.092;2022-08-03T12:08:32;32.80;34.40
51559;DHT22;61650;48.882;2.092;2022-08-03T12:11:01;33.00;33.60
51559;DHT22;61650;48.882;2.092;2022-08-03T12:13:47;33.20;33.60
51559;DHT22;61650;48.882;2.092;2022-08-03T12:16:22;33.60;32.30
51559;DHT22;61650;48.882;2.092;2022-08-03T12:19:02;34.00;31.20
51559;DHT22;61650;48.882;2.092;2022-08-03T12:21:28;34.10;32.50
51559;DHT22;61650;48.882;2.092;2022-08-03T12:23:59;34.40;32.50
51559;DHT22;61650;48.882;2.092;2022-08-03T12:26:26;34.60;31.70
51559;DHT22;61650;48.882;2.092;2022-08-03T12:28:52;34.50;32.40
51559;DHT22;61650;48.882;2.092;2022-08-03T12:31:17;35.00;31.80
51559;DHT22;61650;48.882;2.092;2022-08-03T12:34:03;35.60;31.10
51559;DHT22;61650;48.882;2.092;2022-08-03T12:36:32;35.80;29.90
51559;DHT22;61650;48.882;2.092;2022-08-03T12:39:01;36.20;31.50
51559;DHT22;61650;48.882;2.092;2022-08-03T12:43:57;37.50;28.20
51559;DHT22;61650;48.882;2.092;2022-08-03T12:46:35;37.30;27.90
51559;DHT22;61650;48.882;2.092;2022-08-03T12:49:11;38.30;26.90
51559;DHT22;61650;48.882;2.092;2022-08-03T12:54:18;39.30;26.30
51559;DHT22;61650;48.882;2.092;2022-08-03T12:59:37;40.10;24.10
51559;DHT22;61650;48.882;2.092;2022-08-03T13:04:39;40.40;24.60
51559;DHT22;61650;48.882;2.092;2022-08-03T13:07:07;40.20;24.40
51559;DHT22;61650;48.882;2.092;2022-08-03T13:09:44;39.80;25.80
51559;DHT22;61650;48.882;2.092;2022-08-03T13:12:16;40.20;24.50
51559;DHT22;61650;48.882;2.092;2022-08-03T13:14:43;40.60;24.80
51559;DHT22;61650;48.882;2.092;2022-08-03T13:17:09;40.90;24.50
51559;DHT22;61650;48.882;2.092;2022-08-03T13:19:36;41.10;24.50
51559;DHT22;61650;48.882;2.092;2022-08-03T13:22:15;41.30;24.10
51559;DHT22;61650;48.882;2.092;2022-08-03T13:24:42;41.00;24.00
51559;DHT22;61650;48.882;2.092;2022-08-03T13:27:08;40.60;24.60
51559;DHT22;61650;48.882;2.092;2022-08-03T13:29:34;40.70;24.50
51559;DHT22;61650;48.882;2.092;2022-08-03T13:32:01;40.90;24.10
51559;DHT22;61650;48.882;2.092;2022-08-03T13:34:27;41.20;23.90
51559;DHT22;61650;48.882;2.092;2022-08-03T13:36:53;41.00;24.00
51559;DHT22;61650;48.882;2.092;2022-08-03T13:39:19;40.80;24.00
51559;DHT22;61650;48.882;2.092;2022-08-03T13:41:45;40.50;24.00
51559;DHT22;61650;48.882;2.092;2022-08-03T13:44:11;39.80;24.60
51559;DHT22;61650;48.882;2.092;2022-08-03T13:46:37;38.90;25.00
51559;DHT22;61650;48.882;2.092;2022-08-03T13:49:02;37.90;26.50
51559;DHT22;61650;48.882;2.092;2022-08-03T13:51:28;37.30;27.10
51559;DHT22;61650;48.882;2.092;2022-08-03T13:53:53;37.00;27.50
51559;DHT22;61650;48.882;2.092;2022-08-03T13:56:19;36.90;27.60
51559;DHT22;61650;48.882;2.092;2022-08-03T13:58:44;36.80;27.80
51559;DHT22;61650;48.882;2.092;2022-08-03T14:01:10;36.50;28.20
51559;DHT22;61650;48.882;2.092;2022-08-03T14:03:36;36.50;28.10
51559;DHT22;61650;48.882;2.092;2022-08-03T14:06:01;36.40;28.50
51559;DHT22;61650;48.882;2.092;2022-08-03T14:08:27;36.40;28.20
51559;DHT22;61650;48.882;2.092;2022-08-03T14:10:53;36.50;27.90
51559;DHT22;61650;48.882;2.092;2022-08-03T14:13:18;36.40;27.90
51559;DHT22;61650;48.882;2.092;2022-08-03T14:15:45;36.10;27.80
51559;DHT22;61650;48.882;2.092;2022-08-03T14:18:11;36.10;28.00
51559;DHT22;61650;48.882;2.092;2022-08-03T14:20:36;36.10;28.10
51559;DHT22;61650;48.882;2.092;2022-08-03T14:23:02;36.20;28.20
51559;DHT22;61650;48.882;2.092;2022-08-03T14:25:28;36.00;28.20
51559;DHT22;61650;48.882;2.092;2022-08-03T14:27:55;36.00;28.10
51559;DHT22;61650;48.882;2.092;2022-08-03T14:30:20;35.80;28.30
51559;DHT22;61650;48.882;2.092;2022-08-03T14:32:46;35.60;28.60
51559;DHT22;61650;48.882;2.092;2022-08-03T14:35:12;35.50;28.40
51559;DHT22;61650;48.882;2.092;2022-08-03T14:37:37;35.50;28.60
51559;DHT22;61650;48.882;2.092;2022-08-03T14:40:03;35.50;28.50
51559;DHT22;61650;48.882;2.092;2022-08-03T14:42:29;35.30;28.70
51559;DHT22;61650;48.882;2.092;2022-08-03T14:44:55;35.30;28.90
51559;DHT22;61650;48.882;2.092;2022-08-03T14:47:20;35.30;28.80
51559;DHT22;61650;48.882;2.092;2022-08-03T14:49:46;35.20;28.80
51559;DHT22;61650;48.882;2.092;2022-08-03T14:52:12;35.00;28.80
51559;DHT22;61650;48.882;2.092;2022-08-03T14:54:37;35.00;29.20
51559;DHT22;61650;48.882;2.092;2022-08-03T14:57:03;34.90;29.40
51559;DHT22;61650;48.882;2.092;2022-08-03T14:59:28;35.00;29.60
51559;DHT22;61650;48.882;2.092;2022-08-03T15:01:54;34.90;29.50
51559;DHT22;61650;48.882;2.092;2022-08-03T15:04:20;34.90;29.40
51559;DHT22;61650;48.882;2.092;2022-08-03T15:06:47;34.90;29.20
51559;DHT22;61650;48.882;2.092;2022-08-03T15:09:12;34.80;29.20
51559;DHT22;61650;48.882;2.092;2022-08-03T15:11:38;34.90;29.00
51559;DHT22;61650;48.882;2.092;2022-08-03T15:14:04;34.80;29.20
51559;DHT22;61650;48.882;2.092;2022-08-03T15:16:30;34.80;29.50
51559;DHT22;61650;48.882;2.092;2022-08-03T15:18:56;34.70;29.60
51559;DHT22;61650;48.882;2.092;2022-08-03T15:21:22;34.70;29.60
51559;DHT22;61650;48.882;2.092;2022-08-03T15:23:48;34.70;29.60
51559;DHT22;61650;48.882;2.092;2022-08-03T15:26:13;34.60;29.60
51559;DHT22;61650;48.882;2.092;2022-08-03T15:28:39;34.70;29.50
51559;DHT22;61650;48.882;2.092;2022-08-03T15:31:05;34.90;29.60
51559;DHT22;61650;48.882;2.092;2022-08-03T15:33:31;34.90;29.50
51559;DHT22;61650;48.882;2.092;2022-08-03T15:35:56;35.10;28.80
51559;DHT22;61650;48.882;2.092;2022-08-03T15:38:22;35.00;28.80
51559;DHT22;61650;48.882;2.092;2022-08-03T15:40:48;35.10;28.30
51559;DHT22;61650;48.882;2.092;2022-08-03T15:43:13;35.10;28.50
51559;DHT22;61650;48.882;2.092;2022-08-03T15:45:39;35.10;28.40
51559;DHT22;61650;48.882;2.092;2022-08-03T15:48:05;35.30;27.50
51559;DHT22;61650;48.882;2.092;2022-08-03T15:50:30;35.20;28.10
51559;DHT22;61650;48.882;2.092;2022-08-03T15:52:56;35.20;28.20
51559;DHT22;61650;48.882;2.092;2022-08-03T15:55:21;35.30;28.30
51559;DHT22;61650;48.882;2.092;2022-08-03T15:57:47;35.20;28.60
51559;DHT22;61650;48.882;2.092;2022-08-03T16:00:13;35.10;28.70
51559;DHT22;61650;48.882;2.092;2022-08-03T16:02:39;34.90;29.00
51559;DHT22;61650;48.882;2.092;2022-08-03T16:05:05;34.80;29.00
51559;DHT22;61650;48.882;2.092;2022-08-03T16:07:31;34.70;28.60
51559;DHT22;61650;48.882;2.092;2022-08-03T16:10:16;34.60;28.80
51559;DHT22;61650;48.882;2.092;2022-08-03T16:12:42;34.80;28.40
51559;DHT22;61650;48.882;2.092;2022-08-03T16:15:09;34.90;28.60
51559;DHT22;61650;48.882;2.092;2022-08-03T16:17:35;34.80;28.40
51559;DHT22;61650;48.882;2.092;2022-08-03T16:20:01;34.60;28.90
51559;DHT22;61650;48.882;2.092;2022-08-03T16:22:26;34.50;29.20
51559;DHT22;61650;48.882;2.092;2022-08-03T16:24:53;34.50;29.00